Time;durP1;ratioP1;P1;durP2;ratioP2;P2;SDS_P1;SDS_P2;PMS_P1;PMS_P2;Temp;Humidity;BMP_temperature;BMP_pressure;BME280_temperature;BME280_humidity;BME280_pressure;Samples;Min_cycle;Max_cycle;Signal;HPM_P1;HPM_P2
2023/02/25 00:00:16;;;;;;;;;;;3.50;99.90;;;;;;5102318;28;19926;-62
2023/02/25 00:02:43;;;;;;;;;;;3.50;99.90;;;;;;5102946;28;20014;-63
2023/02/25 00:05:10;;;;;;;;;;;3.40;99.90;;;;;;5101286;28;19920;-63
2023/02/25 00:07:36;;;;;;;;;;;3.40;99.90;;;;;;5100544;28;19923;-64
2023/02/25 00:10:03;;;;;;;;;;;3.40;99.90;;;;;;5100833;28;19923;-64
2023/02/25 00:12:31;;;;;;;;;;;3.20;99.90;;;;;;5105032;28;19923;-63
2023/02/25 00:14:58;;;;;;;;;;;3.30;99.90;;;;;;5106721;28;20063;-63
2023/02/25 00:17:25;;;;;;;;;;;3.40;99.90;;;;;;5104226;28;19927;-64
2023/02/25 00:19:51;;;;;;;;;;;3.30;99.90;;;;;;5106259;28;19926;-64
2023/02/25 00:22:18;;;;;;;;;;;3.40;99.90;;;;;;5104197;28;19977;-63
2023/02/25 00:24:44;;;;;;;;;;;3.50;99.90;;;;;;5104677;28;20476;-64
2023/02/25 00:27:11;;;;;;;;;;;3.50;99.90;;;;;;5106423;28;19920;-64
2023/02/25 00:29:39;;;;;;;;;;;3.40;99.90;;;;;;5104903;28;19924;-63
2023/02/25 00:32:05;;;;;;;;;;;3.50;99.90;;;;;;5103699;28;20381;-63
2023/02/25 00:34:32;;;;;;;;;;;3.60;99.90;;;;;;5105738;28;19920;-62
2023/02/25 00:36:58;;;;;;;;;;;3.60;99.90;;;;;;5106137;28;19970;-62
2023/02/25 00:39:41;;;;;;;;;;;3.50;99.90;;;;;;5102639;28;19920;-63
2023/02/25 00:42:08;;;;;;;;;;;3.50;99.90;;;;;;5103369;28;19927;-63
2023/02/25 00:44:35;;;;;;;;;;;3.60;99.90;;;;;;5104874;28;19926;-64
2023/02/25 00:47:03;;;;;;;;;;;3.70;99.90;;;;;;5105482;28;19923;-64
2023/02/25 00:49:30;;;;;;;;;;;3.60;99.90;;;;;;5102607;28;19924;-63
2023/02/25 00:51:56;;;;;;;;;;;3.70;99.90;;;;;;5104053;28;19920;-63
2023/02/25 00:54:23;;;;;;;;;;;3.70;99.90;;;;;;5105561;28;20390;-61
2023/02/25 00:56:49;;;;;;;;;;;3.80;99.90;;;;;;5104015;28;19920;-64
2023/02/25 00:59:16;;;;;;;;;;;3.80;99.90;;;;;;5102292;28;19920;-63
2023/02/25 01:01:42;;;;;;;;;;;3.80;99.90;;;;;;5098006;28;19942;-64
2023/02/25 01:04:10;;;;;;;;;;;3.70;99.90;;;;;;5105807;28;19928;-63
2023/02/25 01:06:37;;;;;;;;;;;3.70;99.90;;;;;;5103293;28;19973;-61
2023/02/25 01:09:05;;;;;;;;;;;3.70;99.90;;;;;;5104306;28;19927;-61
2023/02/25 01:11:33;;;;;;;;;;;3.70;99.90;;;;;;5105446;28;19920;-62
2023/02/25 01:14:00;;;;;;;;;;;3.80;99.90;;;;;;5102901;28;20506;-63
2023/02/25 01:16:27;;;;;;;;;;;3.70;99.90;;;;;;5102898;28;19920;-61
2023/02/25 01:18:55;;;;;;;;;;;3.70;99.90;;;;;;5105242;28;19924;-63
2023/02/25 01:21:25;;;;;;;;;;;3.60;99.90;;;;;;5104582;28;19924;-62
2023/02/25 01:23:57;;;;;;;;;;;3.60;99.90;;;;;;5104349;28;19920;-62
2023/02/25 01:26:24;;;;;;;;;;;3.50;99.90;;;;;;5112488;28;19985;-63
2023/02/25 01:28:50;;;;;;;;;;;3.50;99.90;;;;;;5110646;28;19945;-63
2023/02/25 01:31:17;;;;;;;;;;;3.50;99.90;;;;;;5105506;28;19919;-64
2023/02/25 01:33:44;;;;;;;;;;;3.40;99.90;;;;;;5102692;28;19920;-62
2023/02/25 01:36:10;;;;;;;;;;;3.50;99.90;;;;;;5106367;28;20023;-63
2023/02/25 01:38:38;;;;;;;;;;;3.60;99.90;;;;;;5102814;28;19920;-64
2023/02/25 01:41:05;;;;;;;;;;;3.70;99.90;;;;;;5104447;28;20446;-63
2023/02/25 01:43:31;;;;;;;;;;;3.70;99.90;;;;;;5103354;28;19920;-64
2023/02/25 01:45:58;;;;;;;;;;;3.70;99.90;;;;;;5101961;28;19924;-63
2023/02/25 01:48:26;;;;;;;;;;;3.70;99.90;;;;;;5102953;28;19920;-65
2023/02/25 01:50:55;;;;;;;;;;;3.60;99.90;;;;;;5104013;28;19924;-64
2023/02/25 01:53:23;;;;;;;;;;;3.60;99.90;;;;;;5100890;28;19971;-63
2023/02/25 01:55:51;;;;;;;;;;;3.60;99.90;;;;;;5100712;28;20049;-63
2023/02/25 01:58:18;;;;;;;;;;;3.60;99.90;;;;;;5104721;28;19930;-63
2023/02/25 02:00:44;;;;;;;;;;;3.60;99.90;;;;;;5104502;28;19977;-63
2023/02/25 02:03:14;;;;;;;;;;;3.60;99.90;;;;;;5104431;28;19919;-64
2023/02/25 02:05:55;;;;;;;;;;;3.70;99.90;;;;;;5102378;28;19927;-65
2023/02/25 02:08:23;;;;;;;;;;;3.80;99.90;;;;;;5095211;28;20032;-64
2023/02/25 02:10:49;;;;;;;;;;;3.80;99.90;;;;;;5103984;28;19962;-65
2023/02/25 02:13:18;;;;;;;;;;;3.80;99.90;;;;;;5101531;28;19927;-62
2023/02/25 02:15:49;;;;;;;;;;;3.60;99.90;;;;;;5102489;28;19953;-63
2023/02/25 02:18:17;;;;;;;;;;;3.70;99.90;;;;;;5104357;28;19945;-64
2023/02/25 02:20:48;;;;;;;;;;;3.70;99.90;;;;;;5103193;28;19924;-65
2023/02/25 02:23:24;;;;;;;;;;;3.70;99.90;;;;;;5101642;28;19966;-62
2023/02/25 02:26:01;;;;;;;;;;;3.60;99.90;;;;;;5101109;28;20375;-63
2023/02/25 02:28:46;;;;;;;;;;;3.60;99.90;;;;;;5101890;28;19924;-62
2023/02/25 02:31:19;;;;;;;;;;;3.50;99.90;;;;;;5101459;28;20386;-64
2023/02/25 02:33:51;;;;;;;;;;;3.40;99.90;;;;;;5099051;28;20084;-61
2023/02/25 02:36:21;;;;;;;;;;;3.50;99.90;;;;;;5101152;28;19969;-62
2023/02/25 02:38:49;;;;;;;;;;;3.70;99.90;;;;;;5102464;28;20423;-62
2023/02/25 02:41:17;;;;;;;;;;;3.70;99.90;;;;;;5103230;28;19919;-62
2023/02/25 02:43:48;;;;;;;;;;;3.70;99.90;;;;;;5101795;28;19920;-62
2023/02/25 02:46:18;;;;;;;;;;;3.80;99.90;;;;;;5101157;28;19920;-62
2023/02/25 02:48:47;;;;;;;;;;;3.80;99.90;;;;;;5103081;28;19919;-62
2023/02/25 02:51:15;;;;;;;;;;;3.70;99.90;;;;;;5101177;28;20363;-63
2023/02/25 02:53:45;;;;;;;;;;;3.70;99.90;;;;;;5103476;28;19920;-65
2023/02/25 02:56:13;;;;;;;;;;;3.50;99.90;;;;;;5103813;28;19974;-64
2023/02/25 02:58:42;;;;;;;;;;;3.50;99.90;;;;;;5101500;28;19964;-64
2023/02/25 03:01:11;;;;;;;;;;;3.60;99.90;;;;;;5101315;28;19920;-64
2023/02/25 03:03:40;;;;;;;;;;;3.60;99.90;;;;;;5098025;28;19920;-63
2023/02/25 03:06:11;;;;;;;;;;;3.60;99.90;;;;;;5101619;28;19997;-64
2023/02/25 03:08:43;;;;;;;;;;;3.60;99.90;;;;;;5097810;28;19924;-63
2023/02/25 03:11:10;;;;;;;;;;;3.40;99.90;;;;;;5101145;28;19959;-62
2023/02/25 03:13:36;;;;;;;;;;;3.40;99.90;;;;;;5102913;28;20313;-62
2023/02/25 03:16:05;;;;;;;;;;;3.50;99.90;;;;;;5103024;28;19964;-63
2023/02/25 03:18:33;;;;;;;;;;;3.40;99.90;;;;;;5100476;28;19964;-64
2023/02/25 03:21:00;;;;;;;;;;;3.40;99.90;;;;;;5101723;28;20421;-63
2023/02/25 03:23:29;;;;;;;;;;;3.40;99.90;;;;;;5103381;28;19980;-61
2023/02/25 03:25:58;;;;;;;;;;;3.40;99.90;;;;;;5101344;28;19974;-63
2023/02/25 03:28:26;;;;;;;;;;;3.30;99.90;;;;;;5100489;28;19955;-62
2023/02/25 03:30:58;;;;;;;;;;;3.40;99.90;;;;;;5102198;28;19924;-63
2023/02/25 03:33:28;;;;;;;;;;;3.40;99.90;;;;;;5103402;28;20378;-63
2023/02/25 03:35:55;;;;;;;;;;;3.50;99.90;;;;;;5101772;28;19920;-63
2023/02/25 03:38:24;;;;;;;;;;;3.30;99.90;;;;;;5100588;28;19924;-62
2023/02/25 03:40:53;;;;;;;;;;;3.50;99.90;;;;;;5102198;28;19920;-63
2023/02/25 03:43:22;;;;;;;;;;;3.50;99.90;;;;;;5104160;28;19964;-64
2023/02/25 03:45:48;;;;;;;;;;;3.60;99.90;;;;;;5105064;28;19973;-63
2023/02/25 03:48:16;;;;;;;;;;;3.50;99.90;;;;;;5104676;28;20038;-63
2023/02/25 03:50:44;;;;;;;;;;;3.50;99.90;;;;;;5107099;28;19920;-60
2023/02/25 03:53:11;;;;;;;;;;;3.60;99.90;;;;;;5106117;28;19920;-60
2023/02/25 03:55:38;;;;;;;;;;;3.50;99.90;;;;;;5103817;28;20322;-64
2023/02/25 03:58:06;;;;;;;;;;;3.50;99.90;;;;;;5105751;28;19920;-62
2023/02/25 04:00:33;;;;;;;;;;;3.60;99.90;;;;;;5106426;28;19969;-64
2023/02/25 04:03:00;;;;;;;;;;;3.70;99.90;;;;;;5104333;28;20507;-63
2023/02/25 04:05:27;;;;;;;;;;;3.60;99.90;;;;;;5104611;28;20432;-63
2023/02/25 04:07:54;;;;;;;;;;;3.50;99.90;;;;;;5106438;28;19966;-64
2023/02/25 04:10:21;;;;;;;;;;;3.60;99.90;;;;;;5105002;28;20006;-64
2023/02/25 04:12:48;;;;;;;;;;;3.60;99.90;;;;;;5103776;28;19950;-64
2023/02/25 04:15:16;;;;;;;;;;;3.60;99.90;;;;;;5105737;28;19966;-64
2023/02/25 04:17:43;;;;;;;;;;;3.60;99.90;;;;;;5105535;28;19919;-61
2023/02/25 04:20:11;;;;;;;;;;;3.50;99.90;;;;;;5099519;28;20329;-62
2023/02/25 04:22:38;;;;;;;;;;;3.40;99.90;;;;;;5105545;28;19977;-61
2023/02/25 04:25:05;;;;;;;;;;;3.40;99.90;;;;;;5103646;28;19920;-60
2023/02/25 04:27:31;;;;;;;;;;;3.60;99.90;;;;;;5104918;28;19919;-60
2023/02/25 04:29:58;;;;;;;;;;;3.60;99.90;;;;;;5106128;28;19920;-62
2023/02/25 04:32:26;;;;;;;;;;;3.70;99.90;;;;;;5105933;28;19924;-61
2023/02/25 04:34:52;;;;;;;;;;;3.70;99.90;;;;;;5105092;28;20378;-63
2023/02/25 04:37:19;;;;;;;;;;;3.70;99.90;;;;;;5103636;28;19946;-62
2023/02/25 04:39:45;;;;;;;;;;;3.80;99.90;;;;;;5113974;28;19923;-62
2023/02/25 04:42:12;;;;;;;;;;;3.80;99.90;;;;;;5114158;28;19941;-63
2023/02/25 04:44:38;;;;;;;;;;;3.80;99.90;;;;;;5109909;28;19936;-62
2023/02/25 04:47:05;;;;;;;;;;;3.70;99.90;;;;;;5104773;28;19926;-63
2023/02/25 04:49:43;;;;;;;;;;;3.70;99.90;;;;;;5103803;28;19920;-63
2023/02/25 04:52:11;;;;;;;;;;;3.70;99.90;;;;;;5103491;28;19923;-61
2023/02/25 04:54:37;;;;;;;;;;;3.60;99.90;;;;;;5099192;28;19926;-62
2023/02/25 04:57:04;;;;;;;;;;;3.60;99.90;;;;;;5104107;28;19924;-63
2023/02/25 04:59:30;;;;;;;;;;;3.40;99.90;;;;;;5105184;28;20023;-63
2023/02/25 05:01:57;;;;;;;;;;;3.40;99.90;;;;;;5103881;28;20068;-60
2023/02/25 05:04:23;;;;;;;;;;;3.50;99.90;;;;;;5102882;28;19920;-63
2023/02/25 05:06:51;;;;;;;;;;;3.60;99.90;;;;;;5105040;28;19924;-62
2023/02/25 05:09:20;;;;;;;;;;;3.60;99.90;;;;;;5104128;28;19924;-62
2023/02/25 05:11:46;;;;;;;;;;;3.60;99.90;;;;;;5102167;28;19920;-62
2023/02/25 05:14:13;;;;;;;;;;;3.60;99.90;;;;;;5101712;28;19920;-62
2023/02/25 05:16:39;;;;;;;;;;;3.50;99.90;;;;;;5103947;28;19961;-63
2023/02/25 05:19:06;;;;;;;;;;;3.60;99.90;;;;;;5101307;28;19972;-63
2023/02/25 05:21:32;;;;;;;;;;;3.70;99.90;;;;;;5102397;28;19924;-63
2023/02/25 05:24:01;;;;;;;;;;;3.70;99.90;;;;;;5102386;28;19978;-64
2023/02/25 05:26:27;;;;;;;;;;;3.50;99.90;;;;;;5104015;28;20394;-63
2023/02/25 05:28:55;;;;;;;;;;;3.60;99.90;;;;;;5105128;28;19923;-63
2023/02/25 05:31:23;;;;;;;;;;;3.40;99.90;;;;;;5102841;28;20337;-63
2023/02/25 05:33:50;;;;;;;;;;;3.40;99.90;;;;;;5106147;28;19974;-64
2023/02/25 05:36:16;;;;;;;;;;;3.40;99.90;;;;;;5101874;28;19980;-64
2023/02/25 05:38:44;;;;;;;;;;;3.40;99.90;;;;;;5103134;28;19996;-63
2023/02/25 05:41:12;;;;;;;;;;;3.40;99.90;;;;;;5104515;28;20424;-64
2023/02/25 05:43:39;;;;;;;;;;;3.30;99.90;;;;;;5102869;28;19973;-63
2023/02/25 05:46:10;;;;;;;;;;;3.40;99.90;;;;;;5102157;28;20439;-63
2023/02/25 05:48:37;;;;;;;;;;;3.50;99.90;;;;;;5099971;28;19919;-63
2023/02/25 05:51:05;;;;;;;;;;;3.60;99.90;;;;;;5102399;28;19927;-63
2023/02/25 05:53:32;;;;;;;;;;;3.70;99.90;;;;;;5098577;28;19966;-63
2023/02/25 05:55:58;;;;;;;;;;;3.60;99.90;;;;;;5102827;28;19931;-62
2023/02/25 05:58:26;;;;;;;;;;;3.60;99.90;;;;;;5104498;28;20043;-65
2023/02/25 06:00:53;;;;;;;;;;;3.80;99.90;;;;;;5102260;28;20003;-64
2023/02/25 06:03:19;;;;;;;;;;;3.70;99.90;;;;;;5101808;28;19988;-64
2023/02/25 06:05:46;;;;;;;;;;;3.60;99.90;;;;;;5097400;28;19920;-64
2023/02/25 06:08:13;;;;;;;;;;;3.50;99.90;;;;;;5102374;28;20416;-66
2023/02/25 06:10:39;;;;;;;;;;;3.50;99.90;;;;;;5105074;28;20335;-64
2023/02/25 06:13:06;;;;;;;;;;;3.40;99.90;;;;;;5103187;28;20308;-63
2023/02/25 06:15:36;;;;;;;;;;;3.30;99.90;;;;;;5094417;28;20378;-63
2023/02/25 06:18:03;;;;;;;;;;;3.40;99.90;;;;;;5103632;28;19972;-64
2023/02/25 06:20:29;;;;;;;;;;;3.40;99.90;;;;;;5100309;28;19962;-64
2023/02/25 06:22:56;;;;;;;;;;;3.40;99.90;;;;;;5103977;28;20342;-63
2023/02/25 06:25:28;;;;;;;;;;;3.50;99.90;;;;;;5102565;28;19924;-64
2023/02/25 06:27:55;;;;;;;;;;;3.60;99.90;;;;;;5101360;28;19967;-64
2023/02/25 06:30:21;;;;;;;;;;;3.70;99.90;;;;;;5106035;28;19920;-64
2023/02/25 06:32:49;;;;;;;;;;;3.70;99.90;;;;;;5100878;28;20386;-64
2023/02/25 06:35:17;;;;;;;;;;;3.60;99.90;;;;;;5103609;28;19965;-63
2023/02/25 06:37:43;;;;;;;;;;;3.60;99.90;;;;;;5097422;28;20295;-64
2023/02/25 06:40:11;;;;;;;;;;;3.60;99.90;;;;;;5103892;28;19999;-63
2023/02/25 06:42:37;;;;;;;;;;;3.60;99.90;;;;;;5102783;28;19942;-65
2023/02/25 06:45:04;;;;;;;;;;;3.70;99.90;;;;;;5101168;28;19981;-64
2023/02/25 06:47:31;;;;;;;;;;;3.70;99.90;;;;;;5103925;28;19928;-64
2023/02/25 06:49:59;;;;;;;;;;;3.80;99.90;;;;;;5100510;28;19948;-64
2023/02/25 06:52:26;;;;;;;;;;;3.60;99.90;;;;;;5097336;28;19967;-63
2023/02/25 06:54:53;;;;;;;;;;;3.60;99.90;;;;;;5102094;28;20352;-63
2023/02/25 06:57:19;;;;;;;;;;;3.60;99.90;;;;;;5103565;28;19920;-64
2023/02/25 06:59:46;;;;;;;;;;;3.60;99.90;;;;;;5101458;28;19920;-63
2023/02/25 07:02:12;;;;;;;;;;;3.60;99.90;;;;;;5101123;28;19978;-63
2023/02/25 07:04:39;;;;;;;;;;;3.60;99.90;;;;;;5103735;28;20256;-64
2023/02/25 07:07:07;;;;;;;;;;;3.70;99.90;;;;;;5102072;28;19920;-63
2023/02/25 07:09:34;;;;;;;;;;;3.70;99.90;;;;;;5100310;28;19965;-63
2023/02/25 07:12:00;;;;;;;;;;;3.70;99.90;;;;;;5101645;28;19928;-62
2023/02/25 07:14:27;;;;;;;;;;;3.80;99.90;;;;;;5101128;28;19978;-63
2023/02/25 07:16:53;;;;;;;;;;;3.80;99.90;;;;;;5103321;28;20325;-64
2023/02/25 07:19:20;;;;;;;;;;;3.80;99.90;;;;;;5105992;28;19965;-63
2023/02/25 07:21:48;;;;;;;;;;;3.80;99.90;;;;;;5107668;28;19920;-64
2023/02/25 07:24:16;;;;;;;;;;;3.90;99.90;;;;;;5105413;28;19926;-63
2023/02/25 07:26:42;;;;;;;;;;;3.80;99.90;;;;;;5104988;28;19927;-62
2023/02/25 07:29:09;;;;;;;;;;;3.90;99.90;;;;;;5101466;28;20267;-63
2023/02/25 07:31:35;;;;;;;;;;;3.90;99.90;;;;;;5105748;28;19974;-64
2023/02/25 07:34:03;;;;;;;;;;;3.80;99.90;;;;;;5107168;28;19923;-63
2023/02/25 07:36:31;;;;;;;;;;;3.80;99.90;;;;;;5105709;28;19942;-63
2023/02/25 07:38:58;;;;;;;;;;;3.80;99.90;;;;;;5104708;28;20345;-63
2023/02/25 07:41:27;;;;;;;;;;;3.70;99.90;;;;;;5107021;28;19920;-62
2023/02/25 07:43:54;;;;;;;;;;;3.70;99.90;;;;;;5106605;28;20402;-63
2023/02/25 07:46:21;;;;;;;;;;;3.60;99.90;;;;;;5104306;28;20098;-63
2023/02/25 07:48:47;;;;;;;;;;;3.60;99.90;;;;;;5108061;28;19928;-62
2023/02/25 07:51:15;;;;;;;;;;;3.70;99.90;;;;;;5104094;28;19920;-63
2023/02/25 07:53:42;;;;;;;;;;;3.70;99.90;;;;;;5106738;28;19920;-63
2023/02/25 07:56:09;;;;;;;;;;;3.80;99.90;;;;;;5109233;28;19920;-62
2023/02/25 07:58:37;;;;;;;;;;;3.80;99.90;;;;;;5110040;28;20420;-62
2023/02/25 08:01:07;;;;;;;;;;;3.80;99.90;;;;;;5111352;28;19973;-63
2023/02/25 08:03:33;;;;;;;;;;;3.80;99.90;;;;;;5106821;28;19920;-63
2023/02/25 08:06:01;;;;;;;;;;;3.70;99.90;;;;;;5105221;28;20475;-63
2023/02/25 08:08:28;;;;;;;;;;;3.80;99.90;;;;;;5104169;28;19927;-63
2023/02/25 08:10:54;;;;;;;;;;;3.70;99.90;;;;;;5105857;28;19949;-63
2023/02/25 08:13:21;;;;;;;;;;;3.70;99.90;;;;;;5106718;28;19923;-63
2023/02/25 08:15:49;;;;;;;;;;;3.70;99.90;;;;;;5103862;28;19946;-63
2023/02/25 08:18:15;;;;;;;;;;;3.80;99.90;;;;;;5104721;28;20065;-64
2023/02/25 08:20:45;;;;;;;;;;;3.70;99.90;;;;;;5106527;28;20271;-62
2023/02/25 08:23:12;;;;;;;;;;;3.70;99.90;;;;;;5104717;28;19949;-63
2023/02/25 08:25:38;;;;;;;;;;;3.70;99.90;;;;;;5103660;28;19924;-63
2023/02/25 08:28:06;;;;;;;;;;;3.80;99.90;;;;;;5107876;28;19972;-65
2023/02/25 08:30:32;;;;;;;;;;;3.90;99.90;;;;;;5107130;28;20390;-65
2023/02/25 08:33:00;;;;;;;;;;;4.00;99.90;;;;;;5107173;28;19988;-63
2023/02/25 08:35:27;;;;;;;;;;;4.10;99.90;;;;;;5105161;28;19920;-64
2023/02/25 08:37:53;;;;;;;;;;;4.10;99.90;;;;;;5103648;28;19920;-64
2023/02/25 08:40:20;;;;;;;;;;;4.10;99.90;;;;;;5105637;28;19943;-64
2023/02/25 08:42:47;;;;;;;;;;;4.20;99.90;;;;;;5105443;28;20322;-64
2023/02/25 08:45:13;;;;;;;;;;;4.20;99.90;;;;;;5103534;28;19923;-64
2023/02/25 08:47:40;;;;;;;;;;;4.20;99.90;;;;;;5107000;28;19965;-63
2023/02/25 08:50:09;;;;;;;;;;;4.20;99.90;;;;;;5105703;28;19928;-64
2023/02/25 08:52:35;;;;;;;;;;;4.20;99.90;;;;;;5103768;28;19927;-65
2023/02/25 08:55:02;;;;;;;;;;;4.20;99.90;;;;;;5098495;28;20004;-64
2023/02/25 08:57:29;;;;;;;;;;;4.30;99.90;;;;;;5096495;28;19920;-64
2023/02/25 08:59:56;;;;;;;;;;;4.20;99.90;;;;;;5102822;28;19924;-64
2023/02/25 09:02:23;;;;;;;;;;;4.40;99.90;;;;;;5102280;28;19924;-64
2023/02/25 09:04:50;;;;;;;;;;;4.60;99.90;;;;;;5104360;28;20378;-64
2023/02/25 09:07:19;;;;;;;;;;;4.50;99.90;;;;;;5104520;28;19965;-64
2023/02/25 09:09:45;;;;;;;;;;;4.50;99.90;;;;;;5105072;28;19920;-66
2023/02/25 09:12:12;;;;;;;;;;;4.40;99.90;;;;;;5104516;28;19924;-65
2023/02/25 09:14:38;;;;;;;;;;;4.40;99.90;;;;;;5102597;28;19920;-64
2023/02/25 09:17:05;;;;;;;;;;;4.50;99.90;;;;;;5102742;28;19924;-62
2023/02/25 09:19:32;;;;;;;;;;;4.40;99.90;;;;;;5101717;28;19928;-63
2023/02/25 09:21:59;;;;;;;;;;;4.40;99.90;;;;;;5099099;28;19920;-64
2023/02/25 09:24:28;;;;;;;;;;;4.30;99.90;;;;;;5103725;28;19931;-62
2023/02/25 09:26:55;;;;;;;;;;;4.40;99.90;;;;;;5095704;28;19931;-62
2023/02/25 09:29:21;;;;;;;;;;;4.40;99.90;;;;;;5101244;28;19946;-63
2023/02/25 09:31:48;;;;;;;;;;;4.40;99.90;;;;;;5105130;28;19923;-62
2023/02/25 09:34:14;;;;;;;;;;;4.50;99.90;;;;;;5102287;28;20386;-63
2023/02/25 09:36:41;;;;;;;;;;;4.40;99.90;;;;;;5099140;28;19920;-62
2023/02/25 09:39:08;;;;;;;;;;;4.30;99.90;;;;;;5104497;28;19981;-63
2023/02/25 09:41:41;;;;;;;;;;;4.40;99.90;;;;;;5103616;28;19972;-64
2023/02/25 09:44:11;;;;;;;;;;;4.50;99.90;;;;;;5104506;28;19919;-66
2023/02/25 09:46:40;;;;;;;;;;;4.60;99.90;;;;;;5101503;28;19981;-67
2023/02/25 09:49:11;;;;;;;;;;;4.50;99.90;;;;;;5104386;28;20286;-65
2023/02/25 09:51:40;;;;;;;;;;;4.50;99.90;;;;;;5103272;28;19919;-66
2023/02/25 09:54:10;;;;;;;;;;;4.50;85.90;;;;;;5101918;28;19946;-65
2023/02/25 09:56:38;;;;;;;;;;;4.50;90.70;;;;;;5101925;28;19920;-67
2023/02/25 09:59:08;;;;;;;;;;;4.50;99.60;;;;;;5104237;28;19931;-65
2023/02/25 10:01:37;;;;;;;;;;;4.70;99.90;;;;;;5101816;28;20542;-66
2023/02/25 10:04:08;;;;;;;;;;;4.70;99.90;;;;;;5100966;28;19927;-66
2023/02/25 10:06:36;;;;;;;;;;;4.70;96.20;;;;;;5102400;28;19973;-64
2023/02/25 10:09:05;;;;;;;;;;;4.80;92.50;;;;;;5100567;28;19923;-63
2023/02/25 10:11:37;;;;;;;;;;;5.00;90.70;;;;;;5102364;28;19968;-57
2023/02/25 10:14:13;;;;;;;;;;;5.10;59.20;;;;;;5103912;28;19965;-63
2023/02/25 10:16:43;;;;;;;;;;;5.00;30.30;;;;;;5102079;28;19920;-61
2023/02/25 10:19:16;;;;;;;;;;;5.10;38.70;;;;;;5102584;28;19926;-59
2023/02/25 10:21:48;;;;;;;;;;;5.10;32.30;;;;;;5102936;28;19984;-63
2023/02/25 10:24:19;;;;;;;;;;;5.10;26.80;;;;;;5102882;28;19923;-60
2023/02/25 10:26:47;;;;;;;;;;;4.80;40.10;;;;;;5097395;28;19924;-60
2023/02/25 10:29:20;;;;;;;;;;;5.30;34.80;;;;;;5101676;28;19920;-61
2023/02/25 10:31:46;;;;;;;;;;;4.20;60.20;;;;;;5099874;28;19923;-64
2023/02/25 10:34:21;;;;;;;;;;;4.00;68.50;;;;;;5103477;28;20447;-63
2023/02/25 10:36:51;;;;;;;;;;;3.90;92.50;;;;;;5098008;28;20296;-63
2023/02/25 10:39:18;;;;;;;;;;;3.70;99.90;;;;;;5101108;28;19965;-60
2023/02/25 10:41:44;;;;;;;;;;;3.70;99.90;;;;;;5097826;28;19924;-60
2023/02/25 10:44:12;;;;;;;;;;;3.80;99.90;;;;;;5101890;28;20565;-62
2023/02/25 10:46:42;;;;;;;;;;;3.80;99.90;;;;;;5102843;28;19970;-62
2023/02/25 10:49:14;;;;;;;;;;;4.00;99.90;;;;;;5101729;28;20324;-60
2023/02/25 10:51:55;;;;;;;;;;;4.20;99.90;;;;;;5102817;28;19945;-60
2023/02/25 10:54:23;;;;;;;;;;;4.10;99.90;;;;;;5103353;28;19977;-62
2023/02/25 10:56:49;;;;;;;;;;;4.00;99.90;;;;;;5101213;28;20435;-61
2023/02/25 10:59:29;;;;;;;;;;;3.80;99.90;;;;;;5100550;28;20302;-64
2023/02/25 11:01:58;;;;;;;;;;;3.70;99.90;;;;;;5100952;28;19920;-63
2023/02/25 11:04:29;;;;;;;;;;;3.80;99.90;;;;;;5096100;28;21281;-63
2023/02/25 11:06:56;;;;;;;;;;;3.80;99.90;;;;;;5101147;28;19945;-61
2023/02/25 11:09:32;;;;;;;;;;;4.10;99.90;;;;;;5097269;28;19954;-64
2023/02/25 11:11:59;;;;;;;;;;;4.30;99.90;;;;;;5097363;28;20003;-63
2023/02/25 11:14:27;;;;;;;;;;;4.40;68.70;;;;;;5113630;28;19924;-64
2023/02/25 11:17:02;;;;;;;;;;;4.50;66.50;;;;;;5115420;28;19920;-64
2023/02/25 11:19:30;;;;;;;;;;;4.50;35.20;;;;;;5102271;28;19924;-61
2023/02/25 11:21:59;;;;;;;;;;;4.40;23.70;;;;;;5102576;28;19924;-67
2023/02/25 11:24:30;;;;;;;;;;;4.90;43.60;;;;;;5086674;28;19924;-62
2023/02/25 11:26:57;;;;;;;;;;;4.60;48.40;;;;;;5103872;28;19924;-67
2023/02/25 11:29:25;;;;;;;;;;;4.70;1.00;;;;;;5101352;28;19923;-63
2023/02/25 11:31:53;;;;;;;;;;;4.60;1.00;;;;;;5100811;28;20406;-59
2023/02/25 11:34:23;;;;;;;;;;;4.60;1.00;;;;;;5100969;28;19998;-61
2023/02/25 11:36:51;;;;;;;;;;;4.60;4.20;;;;;;5100607;28;19931;-62
2023/02/25 11:39:19;;;;;;;;;;;4.90;27.20;;;;;;5097096;28;19930;-62
2023/02/25 11:41:46;;;;;;;;;;;4.90;1.00;;;;;;5101534;28;19928;-57
2023/02/25 11:44:20;;;;;;;;;;;5.10;1.00;;;;;;5098561;28;19932;-58
2023/02/25 11:46:53;;;;;;;;;;;5.30;1.00;;;;;;5098389;28;19948;-62
2023/02/25 11:49:28;;;;;;;;;;;5.60;1.00;;;;;;5096047;28;20332;-62
2023/02/25 11:51:58;;;;;;;;;;;5.50;1.00;;;;;;5103326;28;20018;-60
2023/02/25 11:54:26;;;;;;;;;;;5.30;1.00;;;;;;5102056;28;19939;-62
2023/02/25 11:56:55;;;;;;;;;;;5.10;1.00;;;;;;5104139;28;19935;-61
2023/02/25 11:59:28;;;;;;;;;;;4.80;1.00;;;;;;5100959;28;19928;-63
2023/02/25 12:02:03;;;;;;;;;;;4.60;1.00;;;;;;5102716;28;19924;-60
2023/02/25 12:05:02;;;;;;;;;;;4.60;1.00;;;;;;5104721;28;20043;-62
2023/02/25 12:07:45;;;;;;;;;;;4.60;1.00;;;;;;5041972;28;19944;-62
2023/02/25 12:10:23;;;;;;;;;;;4.70;1.00;;;;;;5038587;28;19925;-63
2023/02/25 12:13:03;;;;;;;;;;;4.70;1.00;;;;;;5076495;28;19928;-63
2023/02/25 12:15:53;;;;;;;;;;;4.80;1.00;;;;;;5103598;28;19924;-61
2023/02/25 12:18:33;;;;;;;;;;;4.80;1.00;;;;;;5084523;28;19992;-63
2023/02/25 12:21:10;;;;;;;;;;;4.80;1.00;;;;;;5096032;28;19985;-68
2023/02/25 12:23:47;;;;;;;;;;;4.90;99.90;;;;;;5100683;28;19931;-68
2023/02/25 12:26:20;;;;;;;;;;;4.90;99.90;;;;;;5101983;28;20307;-69
2023/02/25 12:28:53;;;;;;;;;;;5.10;99.90;;;;;;5101579;28;19924;-69
2023/02/25 12:31:29;;;;;;;;;;;4.90;99.90;;;;;;5100787;28;19923;-61
2023/02/25 12:34:03;;;;;;;;;;;5.20;99.90;;;;;;5102107;28;19924;-61
2023/02/25 12:36:39;;;;;;;;;;;5.30;99.90;;;;;;5101596;28;20383;-64
2023/02/25 12:39:36;;;;;;;;;;;5.30;21.30;;;;;;5099624;28;19969;-63
2023/02/25 12:42:10;;;;;;;;;;;5.30;99.90;;;;;;5042486;28;19948;-63
2023/02/25 12:44:47;;;;;;;;;;;5.40;1.00;;;;;;5088801;28;19939;-63
2023/02/25 12:47:33;;;;;;;;;;;5.40;1.00;;;;;;5104642;28;19924;-64
2023/02/25 12:50:21;;;;;;;;;;;5.40;1.00;;;;;;5099616;28;19923;-64
2023/02/25 12:52:53;;;;;;;;;;;5.50;99.90;;;;;;5099640;28;20019;-62
2023/02/25 12:55:35;;;;;;;;;;;5.70;99.90;;;;;;5102906;28;19924;-62
2023/02/25 12:58:17;;;;;;;;;;;5.80;99.90;;;;;;5102647;28;19924;-60
2023/02/25 13:01:03;;;;;;;;;;;5.70;99.90;;;;;;5106212;28;19975;-64
2023/02/25 13:03:39;;;;;;;;;;;5.50;99.90;;;;;;5106047;28;19923;-64
2023/02/25 13:06:21;;;;;;;;;;;5.50;99.90;;;;;;5105258;28;19999;-64
2023/02/25 13:09:05;;;;;;;;;;;5.60;99.90;;;;;;5103125;28;19923;-66
2023/02/25 13:11:37;;;;;;;;;;;5.60;99.90;;;;;;5100512;28;19957;-65
2023/02/25 13:14:12;;;;;;;;;;;5.60;99.90;;;;;;5099870;28;19930;-65
2023/02/25 13:16:51;;;;;;;;;;;5.60;99.90;;;;;;5105136;28;19932;-64
2023/02/25 13:19:36;;;;;;;8.20;1.98;;;5.70;99.90;;;;;;5095326;28;20434;-62
2023/02/25 13:22:15;;;;;;;6.20;1.57;;;5.40;99.90;;;;;;5097060;28;20515;-64
2023/02/25 13:24:48;;;;;;;6.55;1.98;;;5.30;99.90;;;;;;5095022;28;20760;-64
2023/02/25 13:27:22;;;;;;;;;;;5.10;99.90;;;;;;5098597;28;20412;-65
2023/02/25 13:30:03;;;;;;;;;;;5.00;99.90;;;;;;5102290;28;20436;-63
2023/02/25 13:32:38;;;;;;;7.10;1.67;;;5.00;99.90;;;;;;5101672;28;20424;-61
2023/02/25 13:35:11;;;;;;;;;;;4.80;99.90;;;;;;5102341;28;20757;-61
2023/02/25 13:37:48;;;;;;;5.85;1.63;;;4.80;99.90;;;;;;5098341;28;20427;-61
2023/02/25 13:40:24;;;;;;;;;;;5.00;99.90;;;;;;5100787;28;20418;-61
2023/02/25 13:43:09;;;;;;;;;;;5.20;99.90;;;;;;5104446;28;19923;-61
2023/02/25 13:45:56;;;;;;;2.67;1.10;;;5.50;99.90;;;;;;5100118;28;20427;-65
2023/02/25 13:48:48;;;;;;;2.13;0.90;;;5.40;99.90;;;;;;5098738;28;21219;-65
2023/02/25 13:51:43;;;;;;;4.50;1.50;;;5.30;99.90;;;;;;5058551;28;20494;-63
2023/02/25 13:54:30;;;;;;;4.60;1.10;;;5.40;99.90;;;;;;5101275;28;20404;-63
2023/02/25 13:57:05;;;;;;;2.03;0.90;;;5.50;99.90;;;;;;5102351;28;20408;-64
2023/02/25 13:59:56;;;;;;;2.15;1.23;;;5.00;99.90;;;;;;5101799;28;20560;-63
2023/02/25 14:02:44;;;;;;;3.13;1.33;;;4.90;99.90;;;;;;5061061;28;20537;-63
2023/02/25 14:05:34;;;;;;;3.25;1.05;;;4.80;99.90;;;;;;5102958;28;20412;-64
2023/02/25 14:08:13;;;;;;;2.83;0.85;;;5.00;99.90;;;;;;5097678;28;20738;-63
2023/02/25 14:10:51;;;;;;;3.65;1.00;;;5.20;99.90;;;;;;5096418;28;20840;-59
2023/02/25 14:13:52;;;;;;;2.85;1.35;;;5.30;99.90;;;;;;5099350;28;20942;-63
2023/02/25 14:16:51;;;;;;;3.50;1.17;;;5.50;99.90;;;;;;5100058;28;20899;-63
2023/02/25 14:19:37;;;;;;;3.53;1.13;;;5.60;99.90;;;;;;5095445;28;20408;-65
2023/02/25 14:22:23;;;;;;;2.20;1.25;;;5.60;99.90;;;;;;5098081;28;20406;-65
2023/02/25 14:24:58;;;;;;;3.58;1.00;;;5.40;99.90;;;;;;5099364;28;20410;-65
2023/02/25 14:27:32;;;;;;;3.10;1.17;;;5.40;99.90;;;;;;5112357;28;20406;-66
2023/02/25 14:30:10;;;;;;;3.65;1.00;;;5.50;99.90;;;;;;5104874;28;20420;-67
2023/02/25 14:32:48;;;;;;;2.72;1.10;;;5.50;99.90;;;;;;5098328;28;20470;-67
2023/02/25 14:35:40;;;;;;;3.08;1.08;;;5.40;99.90;;;;;;5098247;28;20409;-67
2023/02/25 14:38:09;;;;;;;2.60;1.17;;;5.30;99.90;;;;;;5100304;28;20414;-69
2023/02/25 14:40:43;;;;;;;2.88;0.98;;;5.30;99.90;;;;;;5097982;28;20416;-68